sensor_id;sensor_type;location;lat;lon;timestamp;pressure;altitude;pressure_sealevel;temperature;humidity
15558;BME280;7880;50.110;9.372;2023-02-08T00:04:26;-3.97276501795277;;;-3.875;100.0
15558;BME280;7880;50.110;9.372;2023-02-08T00:09:31;-4.093760101404041;;;-4.0;100.0
15558;BME280;7880;50.110;9.372;2023-02-08T00:14:39;-4.204672113968991;;;-4.125;100.0
15558;BME280;7880;50.110;9.372;2023-02-08T00:19:42;-4.21979646840482;;;-4.187;100.0
15558;BME280;7880;50.110;9.372;2023-02-08T00:24:45;-4.1744233972392975;;;-4.125;100.0
15558;BME280;7880;50.110;9.372;2023-02-08T00:29:50;-4.350874097127234;;;-4.187;100.0
15558;BME280;7880;50.110;9.372;2023-02-08T00:34:55;-4.229879369906849;;;-4.25;100.0
15558;BME280;7880;50.110;9.372;2023-02-08T00:40:02;-4.255086618568749;;;-4.25;100.0
15558;BME280;7880;50.110;9.372;2023-02-08T00:45:07;-4.335749765392393;;;-4.312;100.0
15558;BME280;7880;50.110;9.372;2023-02-08T00:50:10;-4.340791209595045;;;-4.375;100.0
15558;BME280;7880;50.110;9.372;2023-02-08T00:55:16;-4.4617857831472065;;;-4.375;100.0
15558;BME280;7880;50.110;9.372;2023-02-08T01:00:22;-4.350874097127234;;;-4.312;100.0
15558;BME280;7880;50.110;9.372;2023-02-08T01:05:23;-4.5676558974897485;;;-4.437;100.0
15558;BME280;7880;50.110;9.372;2023-02-08T01:10:29;-4.492034400341799;;;-4.375;100.0
15558;BME280;7880;50.110;9.372;2023-02-08T01:15:35;-4.4617857831472065;;;-4.375;100.0
15558;BME280;7880;50.110;9.372;2023-02-08T01:20:39;-4.5676558974897485;;;-4.562;100.0
15558;BME280;7880;50.110;9.372;2023-02-08T01:25:49;-4.4617857831472065;;;-4.437;100.0
15558;BME280;7880;50.110;9.372;2023-02-08T01:30:48;-4.56261446638382;;;-4.437;100.0
15558;BME280;7880;50.110;9.372;2023-02-08T01:35:53;-4.5928630486538164;;;-4.562;100.0
15558;BME280;7880;50.110;9.372;2023-02-08T01:40:59;-4.643277329154079;;;-4.5;100.0
15558;BME280;7880;50.110;9.372;2023-02-08T01:45:28;-4.5928630486538164;;;-4.5;100.0
15558;BME280;7880;50.110;9.372;2023-02-08T01:50:34;-4.814685665158322;;;-4.812;100.0
15558;BME280;7880;50.110;9.372;2023-02-08T01:55:38;-4.839892745018005;;;-4.812;100.0
15558;BME280;7880;50.110;9.372;2023-02-08T02:00:37;-5.177666913153371;;;-5.062;100.0
15558;BME280;7880;50.110;9.372;2023-02-08T02:05:45;-4.945762400975218;;;-5.0;100.0
15558;BME280;7880;50.110;9.372;2023-02-08T02:10:49;-4.865099817601731;;;-4.812;100.0
15558;BME280;7880;50.110;9.372;2023-02-08T02:15:51;-4.744105802843114;;;-4.75;100.0
15558;BME280;7880;50.110;9.372;2023-02-08T02:21:41;-4.875182644597953;;;-4.75;100.0
15558;BME280;7880;50.110;9.372;2023-02-08T02:33:46;-4.784437159722438;;;-4.625;100.0
15558;BME280;7880;50.110;9.372;2023-02-08T02:38:52;-4.7390643819235265;;;-4.625;100.0
15558;BME280;7880;50.110;9.372;2023-02-08T02:43:49;-4.774354322248837;;;-4.562;100.0
15558;BME280;7880;50.110;9.372;2023-02-08T02:48:52;-4.648318755603396;;;-4.562;100.0
15558;BME280;7880;50.110;9.372;2023-02-08T02:54:04;-4.774354322248837;;;-4.687;100.0
15558;BME280;7880;50.110;9.372;2023-02-08T02:59:01;-4.658401607628912;;;-4.562;100.0
15558;BME280;7880;50.110;9.372;2023-02-08T03:04:16;-4.789478578022681;;;-4.687;100.0
15558;BME280;7880;50.110;9.372;2023-02-08T03:09:17;-4.673525883484399;;;-4.562;100.0
15558;BME280;7880;50.110;9.372;2023-02-08T03:14:21;-4.602945907082176;;;-4.5;100.0
15558;BME280;7880;50.110;9.372;2023-02-08T03:19:21;-4.5928630486538164;;;-4.5;100.0
15558;BME280;7880;50.110;9.372;2023-02-08T03:24:25;-4.628153048059903;;;-4.437;100.0
15558;BME280;7880;50.110;9.372;2023-02-08T03:29:39;-4.673525883484399;;;-4.5;100.0
15558;BME280;7880;50.110;9.372;2023-02-08T03:34:36;-4.582780189061305;;;-4.437;100.0
15558;BME280;7880;50.110;9.372;2023-02-08T03:39:37;-4.582780189061305;;;-4.437;100.0
15558;BME280;7880;50.110;9.372;2023-02-08T03:44:52;-4.421454277256271;;;-4.25;100.0
15558;BME280;7880;50.110;9.372;2023-02-08T03:49:54;-4.376081310864538;;;-4.125;100.0
15558;BME280;7880;50.110;9.372;2023-02-08T03:55:01;-4.2752524122595785;;;-4.0;100.0
15558;BME280;7880;50.110;9.372;2023-02-08T04:00:03;-4.19458920955658;;;-3.937;100.0
15558;BME280;7880;50.110;9.372;2023-02-08T04:05:07;-3.8921015358529987;;;-3.687;100.0
15558;BME280;7880;50.110;9.372;2023-02-08T04:10:11;-3.982847947976552;;;-3.687;100.0
15558;BME280;7880;50.110;9.372;2023-02-08T04:15:15;-3.4736585267295594;;;-3.25;100.0
15558;BME280;7880;50.110;9.372;2023-02-08T04:20:26;-3.498865993670188;;;-3.125;100.0
15558;BME280;7880;50.110;9.372;2023-02-08T04:25:25;-3.4534925479383674;;;-3.062;100.0
15558;BME280;7880;50.110;9.372;2023-02-08T04:30:30;-3.3879530847072603;;;-3.0;100.0
15558;BME280;7880;50.110;9.372;2023-02-08T04:35:33;-3.2518325039127376;;;-2.875;100.0
15558;BME280;7880;50.110;9.372;2023-02-08T04:40:37;-3.201417420146754;;;-2.812;100.0
15558;BME280;7880;50.110;9.372;2023-02-08T04:45:43;-3.2669570233672856;;;-2.875;100.0
15558;BME280;7880;50.110;9.372;2023-02-08T04:50:45;-3.1056286808103324;;;-2.75;100.0
15558;BME280;7880;50.110;9.372;2023-02-08T04:55:48;-3.115711710951291;;;-2.75;100.0
15558;BME280;7880;50.110;9.372;2023-02-08T05:00:52;-3.0350474372273313;;;-2.687;100.0
15558;BME280;7880;50.110;9.372;2023-02-08T05:05:58;-3.060255030769622;;;-2.687;100.0
15558;BME280;7880;50.110;9.372;2023-02-08T05:11:02;-3.0552135126432405;;;-2.687;100.0
15558;BME280;7880;50.110;9.372;2023-02-08T05:16:11;-3.145960794389248;;;-2.812;100.0
15558;BME280;7880;50.110;9.372;2023-02-08T05:21:10;-3.0905041334161067;;;-2.75;100.0
15558;BME280;7880;50.110;9.372;2023-02-08T05:26:15;-3.0804211003647652;;;-2.75;100.0
15558;BME280;7880;50.110;9.372;2023-02-08T05:31:20;-3.0501719942258205;;;-2.687;100.0
15558;BME280;7880;50.110;9.372;2023-02-08T05:36:22;-3.0955456495052203;;;-2.687;100.0
15558;BME280;7880;50.110;9.372;2023-02-08T05:41:29;-3.0955456495052203;;;-2.75;100.0
15558;BME280;7880;50.110;9.372;2023-02-08T05:46:33;-2.969507659965893;;;-2.625;100.0
15558;BME280;7880;50.110;9.372;2023-02-08T05:51:38;-3.019922877609497;;;-2.687;100.0
15558;BME280;7880;50.110;9.372;2023-02-08T05:56:40;-3.0400889565178657;;;-2.687;100.0
15558;BME280;7880;50.110;9.372;2023-02-08T06:01:45;-3.0905041334161067;;;-2.75;100.0
15558;BME280;7880;50.110;9.372;2023-02-08T06:06:52;-2.9392585154098922;;;-2.625;100.0
15558;BME280;7880;50.110;9.372;2023-02-08T06:11:53;-3.0148813571548088;;;-2.687;100.0
15558;BME280;7880;50.110;9.372;2023-02-08T06:16:59;-3.004798315372318;;;-2.687;100.0
15558;BME280;7880;50.110;9.372;2023-02-08T06:22:01;-3.009839836409083;;;-2.687;100.0
15558;BME280;7880;50.110;9.372;2023-02-08T06:27:05;-3.030005917645758;;;-2.75;100.0
15558;BME280;7880;50.110;9.372;2023-02-08T06:32:11;-3.009839836409083;;;-2.625;100.0
15558;BME280;7880;50.110;9.372;2023-02-08T06:37:14;-3.060255030769622;;;-2.687;100.0
15558;BME280;7880;50.110;9.372;2023-02-08T06:42:17;-3.065296548604965;;;-2.75;100.0
15558;BME280;7880;50.110;9.372;2023-02-08T06:47:21;-3.009839836409083;;;-2.687;100.0
15558;BME280;7880;50.110;9.372;2023-02-08T06:51:37;-3.0350474372273313;;;-2.687;100.0
15558;BME280;7880;50.110;9.372;2023-02-08T06:56:40;-3.065296548604965;;;-2.812;100.0
15558;BME280;7880;50.110;9.372;2023-02-08T07:01:44;-3.1005871653032955;;;-2.812;100.0
15558;BME280;7880;50.110;9.372;2023-02-08T07:06:47;-3.060255030769622;;;-2.812;100.0
15558;BME280;7880;50.110;9.372;2023-02-08T07:12:04;-3.0854626170359554;;;-2.75;100.0
15558;BME280;7880;50.110;9.372;2023-02-08T07:16:58;-3.1056286808103324;;;-2.875;100.0
15558;BME280;7880;50.110;9.372;2023-02-08T07:22:04;-3.0905041334161067;;;-2.812;100.0
15558;BME280;7880;50.110;9.372;2023-02-08T07:27:11;-3.0249643977731466;;;-2.75;100.0
15558;BME280;7880;50.110;9.372;2023-02-08T07:32:09;-2.9392585154098922;;;-2.687;100.0
15558;BME280;7880;50.110;9.372;2023-02-08T07:37:12;-2.848511018877616;;;-2.562;100.0
15558;BME280;7880;50.110;9.372;2023-02-08T07:42:16;-2.848511018877616;;;-2.562;100.0
15558;BME280;7880;50.110;9.372;2023-02-08T07:47:28;-2.7527218924602495;;;-2.437;100.0
15558;BME280;7880;50.110;9.372;2023-02-08T07:52:25;-2.732555747195147;;;-2.437;100.0
15558;BME280;7880;50.110;9.372;2023-02-08T07:57:30;-2.6266834081558046;;;-2.312;100.0
15558;BME280;7880;50.110;9.372;2023-02-08T08:02:36;-2.5661848710791673;;;-2.25;100.0
15558;BME280;7880;50.110;9.372;2023-02-08T08:07:38;-2.510727841942571;;;-2.187;100.0
15558;BME280;7880;50.110;9.372;2023-02-08T08:12:45;-2.4351045636401976;;;-2.062;100.0
15558;BME280;7880;50.110;9.372;2023-02-08T08:17:46;-2.409896789654158;;;-2.062;100.0
15558;BME280;7880;50.110;9.372;2023-02-08T08:22:49;-2.3443565432389732;;;-2.0;100.0
15558;BME280;7880;50.110;9.372;2023-02-08T08:28:05;-2.268733120872639;;;-1.937;100.0
15558;BME280;7880;50.110;9.372;2023-02-08T08:32:58;-2.1174860796891153;;;-1.812;100.0
15558;BME280;7880;50.110;9.372;2023-02-08T08:38:03;-2.1174860796891153;;;-1.812;100.0
15558;BME280;7880;50.110;9.372;2023-02-08T08:43:07;-2.062028765626019;;;-1.75;100.0
15558;BME280;7880;50.110;9.372;2023-02-08T08:48:13;-1.9309477014874574;;;-1.625;100.0
15558;BME280;7880;50.110;9.372;2023-02-08T08:53:16;-1.8099496215058024;;;-1.5;100.0
15558;BME280;7880;50.110;9.372;2023-02-08T08:58:32;-1.7242425467586144;;;-1.437;100.0
15558;BME280;7880;50.110;9.372;2023-02-08T09:03:23;-1.6788681790174451;;;-1.375;100.0
15558;BME280;7880;50.110;9.372;2023-02-08T09:08:26;-1.5578697497898246;;;-1.312;100.0
15558;BME280;7880;50.110;9.372;2023-02-08T09:13:30;-1.4267879289516714;;;-1.125;100.0
15558;BME280;7880;50.110;9.372;2023-02-08T09:18:35;-1.386455021420261;;;-1.062;100.0
15558;BME280;7880;50.110;9.372;2023-02-08T09:23:37;-1.2856226711010095;;;-1.0;100.0
15558;BME280;7880;50.110;9.372;2023-02-08T09:28:45;-1.2452896983770188;;;-0.937;100.0
15558;BME280;7880;50.110;9.372;2023-02-08T09:33:46;-1.1444571850763168;;;-0.812;100.0
15558;BME280;7880;50.110;9.372;2023-02-08T09:38:48;-1.0587494572391734;;;-0.75;100.0
15558;BME280;7880;50.110;9.372;2023-02-08T09:43:54;-0.957916728570126;;;-0.687;100.0
15558;BME280;7880;50.110;9.372;2023-02-08T09:48:57;-0.8974170354893432;;;-0.625;99.19627380582742
15558;BME280;7880;50.110;9.372;2023-02-08T09:54:04;-0.8318756540247705;;;-0.5;98.87068811731551
15558;BME280;7880;50.110;9.372;2023-02-08T09:59:15;-0.8570838834857568;;;-0.5;95.05109564526076
15558;BME280;7880;50.110;9.372;2023-02-08T10:04:17;-0.7512092708551791;;;-0.375;96.19644305009946
15558;BME280;7880;50.110;9.372;2023-02-08T10:09:26;-0.6705428131797817;;;-0.312;93.61071116348387
15558;BME280;7880;50.110;9.372;2023-02-08T10:14:48;-0.5495429869682994;;;-0.312;95.17657890706367
15558;BME280;7880;50.110;9.372;2023-02-08T10:19:47;-0.3781262795382645;;;-0.125;94.21229956227477
15558;BME280;7880;50.110;9.372;2023-02-08T10:24:51;-0.2974594772735145;;;0.0;93.71374661615374
15558;BME280;7880;50.110;9.372;2023-02-08T10:30:03;-0.2167926005029585;;;0.125;92.38332142290197
15558;BME280;7880;50.110;9.372;2023-02-08T10:34:53;-0.055458623444428666;;;0.25;92.64011277832773
15558;BME280;7880;50.110;9.372;2023-02-08T10:39:56;-0.09579214564873836;;;0.25;91.33292993798494
15558;BME280;7880;50.110;9.372;2023-02-08T10:45:06;0.09579225071356631;;;0.437;88.4049179882294
15558;BME280;7880;50.110;9.372;2023-02-08T10:50:13;0.07058375349733978;;;0.375;84.37606323683534
15558;BME280;7880;50.110;9.372;2023-02-08T10:55:15;0.10083395102992654;;;0.437;86.29855842079436
15558;BME280;7880;50.110;9.372;2023-02-08T11:00:18;0.3781279166287277;;;0.625;86.34260425261145
15558;BME280;7880;50.110;9.372;2023-02-08T11:05:20;0.2621685148216784;;;0.625;81.15566257695691
15558;BME280;7880;50.110;9.372;2023-02-08T11:10:23;0.3932530673453584;;;0.75;81.28285576572405
15558;BME280;7880;50.110;9.372;2023-02-08T11:15:29;0.4184616576938424;;;0.687;76.47278388949091
15558;BME280;7880;50.110;9.372;2023-02-08T11:20:33;0.5293795416655485;;;0.875;79.14313057055004
15558;BME280;7880;50.110;9.372;2023-02-08T11:25:38;0.7310487825016025;;;1.062;84.19214350585213
15558;BME280;7880;50.110;9.372;2023-02-08T11:30:40;0.741132256767014;;;1.062;81.07482245341488
15558;BME280;7880;50.110;9.372;2023-02-08T11:35:53;0.826841835025698;;;1.187;79.48759430650047
15558;BME280;7880;50.110;9.372;2023-02-08T11:40:47;0.7713826865481679;;;1.125;77.37086032312918
15558;BME280;7880;50.110;9.372;2023-02-08T11:45:51;0.9428019865474198;;;1.187;78.50836911484167
15558;BME280;7880;50.110;9.372;2023-02-08T11:51:00;0.7915496455563698;;;1.187;76.4119809875262
15558;BME280;7880;50.110;9.372;2023-02-08T11:56:01;1.1192633820930495;;;1.312;81.13669468174356
15558;BME280;7880;50.110;9.372;2023-02-08T12:00:58;1.2150568604061847;;;1.562;82.14361879674526
15558;BME280;7880;50.110;9.372;2023-02-08T12:06:08;1.0940545894729439;;;1.5;79.9268312942684
15558;BME280;7880;50.110;9.372;2023-02-08T12:11:08;1.3965605811274144;;;1.687;86.35365640475943
15558;BME280;7880;50.110;9.372;2023-02-08T12:16:11;1.356226388370851;;;1.75;84.14690691944809
15558;BME280;7880;50.110;9.372;2023-02-08T12:21:11;1.4217694610590115;;;1.75;84.35991215866636
15558;BME280;7880;50.110;9.372;2023-02-08T12:26:18;1.3663099348137622;;;1.75;83.82459757717155
15558;BME280;7880;50.110;9.372;2023-02-08T12:31:56;1.6385661288222764;;;1.937;86.01843671628843
15558;BME280;7880;50.110;9.372;2023-02-08T12:36:55;1.7091512065439018;;;2.062;87.38758626555881
15558;BME280;7880;50.110;9.372;2023-02-08T12:42:09;1.6688168694323395;;;2.0;84.37842672415287
15558;BME280;7880;50.110;9.372;2023-02-08T12:47:04;1.4268112379184459;;;1.812;81.82295902364669
15558;BME280;7880;50.110;9.372;2023-02-08T12:52:15;1.6133571863174438;;;1.875;81.28319147793323
15558;BME280;7880;50.110;9.372;2023-02-08T12:57:06;1.557897538418183;;;1.812;83.0863099032835
15558;BME280;7880;50.110;9.372;2023-02-08T13:02:18;1.3763934824208264;;;1.75;83.7538704560519
15558;BME280;7880;50.110;9.372;2023-02-08T13:07:19;1.7494855622819159;;;2.0;83.96128636529242
15558;BME280;7880;50.110;9.372;2023-02-08T13:12:27;1.7242765877628699;;;2.125;82.24150937167795
15558;BME280;7880;50.110;9.372;2023-02-08T13:17:28;1.7595691541268024;;;2.062;81.35060287743568
15558;BME280;7880;50.110;9.372;2023-02-08T13:22:34;1.6889840356598143;;;2.062;80.04669458848124
15558;BME280;7880;50.110;9.372;2023-02-08T13:27:37;1.7394019716011826;;;2.062;80.30930751806183
15558;BME280;7880;50.110;9.372;2023-02-08T13:32:40;1.8200707296433394;;;2.187;81.62470495635333
15558;BME280;7880;50.110;9.372;2023-02-08T13:37:49;1.7595691541268024;;;2.062;78.91171650320236
15558;BME280;7880;50.110;9.372;2023-02-08T13:42:48;1.6889840356598143;;;2.0;79.80488946839752
15558;BME280;7880;50.110;9.372;2023-02-08T13:48:06;1.8604051366040948;;;2.125;79.39579054130914
15558;BME280;7880;50.110;9.372;2023-02-08T13:52:55;1.885614150413312;;;2.125;80.4484560150565
15558;BME280;7880;50.110;9.372;2023-02-08T13:58:00;2.0368683860637247;;;2.312;79.74898905089111
15558;BME280;7880;50.110;9.372;2023-02-08T14:03:21;2.046952011086978;;;2.312;81.91724907825952
15558;BME280;7880;50.110;9.372;2023-02-08T14:08:17;2.0519938240351623;;;2.375;82.5095577011014
15558;BME280;7880;50.110;9.372;2023-02-08T14:13:22;2.0318265739886554;;;2.375;81.26713360773121
15558;BME280;7880;50.110;9.372;2023-02-08T14:18:22;2.001575707650045;;;2.312;80.99620646780225
15558;BME280;7880;50.110;9.372;2023-02-08T14:23:22;2.0318265739886554;;;2.312;80.10888379937033
15558;BME280;7880;50.110;9.372;2023-02-08T14:28:28;2.157871963176876;;;2.437;82.67064458826631
15558;BME280;7880;50.110;9.372;2023-02-08T14:33:29;1.930990393605316;;;2.25;80.82387639068568
15558;BME280;7880;50.110;9.372;2023-02-08T14:38:49;1.996533897612244;;;2.312;81.0265411159694
15558;BME280;7880;50.110;9.372;2023-02-08T14:43:36;1.9713248517888133;;;2.25;79.92226884410974
15558;BME280;7880;50.110;9.372;2023-02-08T14:48:46;2.0318265739886554;;;2.312;78.62573686677835
15558;BME280;7880;50.110;9.372;2023-02-08T14:53:47;2.001575707650045;;;2.25;80.61531160612839
15558;BME280;7880;50.110;9.372;2023-02-08T14:58:55;1.8755305440165102;;;2.25;82.54124134050221
15558;BME280;7880;50.110;9.372;2023-02-08T15:03:58;2.0419101984298322;;;2.312;80.08421159910478
15558;BME280;7880;50.110;9.372;2023-02-08T15:09:02;2.062077450804645;;;2.312;80.28201303868211
15558;BME280;7880;50.110;9.372;2023-02-08T15:14:04;1.7797363413090352;;;2.125;80.28789439941332
15558;BME280;7880;50.110;9.372;2023-02-08T15:19:08;1.7696527471358423;;;2.0;82.11286691245326
15558;BME280;7880;50.110;9.372;2023-02-08T15:24:23;1.7696527471358423;;;2.0;82.3339825274427
15558;BME280;7880;50.110;9.372;2023-02-08T15:29:19;1.6889840356598143;;;1.937;80.05183918781265
15558;BME280;7880;50.110;9.372;2023-02-08T15:34:23;1.6789004519640003;;;1.937;80.11249957709208
15558;BME280;7880;50.110;9.372;2023-02-08T15:39:31;1.6284825509472285;;;1.875;81.00716727185882
15558;BME280;7880;50.110;9.372;2023-02-08T15:45:21;1.6536914978176356;;;1.875;84.207123560626
15558;BME280;7880;50.110;9.372;2023-02-08T15:50:16;1.5276468362251763;;;1.812;83.53498513064177
15558;BME280;7880;50.110;9.372;2023-02-08T15:55:20;1.4822708025807514;;;1.75;85.27581138111408
15558;BME280;7880;50.110;9.372;2023-02-08T16:00:21;1.3814352566609158;;;1.687;89.03432509463158
15558;BME280;7880;50.110;9.372;2023-02-08T16:05:25;1.2906833648681642;;;1.562;94.55923982637519
15558;BME280;7880;50.110;9.372;2023-02-08T16:10:31;1.2251403905509506;;;1.5;97.87924998964768
15558;BME280;7880;50.110;9.372;2023-02-08T16:15:34;1.114221622986952;;;1.375;94.60607596164255
15558;BME280;7880;50.110;9.372;2023-02-08T16:20:40;1.0537205364147666;;;1.312;99.4833452810524
15558;BME280;7880;50.110;9.372;2023-02-08T16:25:44;0.9428019865474198;;;1.187;100.0
15558;BME280;7880;50.110;9.372;2023-02-08T16:30:52;0.695756631740369;;;0.937;100.0
15558;BME280;7880;50.110;9.372;2023-02-08T16:36:01;0.45879541738540863;;;0.687;100.0
15558;BME280;7880;50.110;9.372;2023-02-08T16:41:11;0.39829478483297864;;;0.5;100.0
15558;BME280;7880;50.110;9.372;2023-02-08T16:46:17;0.22687655352638103;;;0.375;100.0
15558;BME280;7880;50.110;9.372;2023-02-08T16:51:12;0.21679313863278366;;;0.312;100.0
15558;BME280;7880;50.110;9.372;2023-02-08T16:56:13;0.21679313863278366;;;0.312;100.0
15558;BME280;7880;50.110;9.372;2023-02-08T17:00:12;0.11595905372523703;;;0.187;100.0
15558;BME280;7880;50.110;9.372;2023-02-08T17:05:05;-0.10587552328943275;;;0.0;100.0
15558;BME280;7880;50.110;9.372;2023-02-08T17:10:17;-0.25208436825778335;;;-0.25;100.0
15558;BME280;7880;50.110;9.372;2023-02-08T17:15:13;-0.26216772785410286;;;-0.312;100.0
15558;BME280;7880;50.110;9.372;2023-02-08T17:20:21;-0.41845965273096225;;;-0.312;100.0
15558;BME280;7880;50.110;9.372;2023-02-08T17:25:24;-0.47895967759541236;;;-0.437;100.0
15558;BME280;7880;50.110;9.372;2023-02-08T17:30:31;-0.2873761217517313;;;-0.312;100.0
15558;BME280;7880;50.110;9.372;2023-02-08T17:35:29;-0.19662586966878734;;;-0.062;100.0
15558;BME280;7880;50.110;9.372;2023-02-08T17:40:35;-0.18654250250547194;;;-0.062;100.0
15558;BME280;7880;50.110;9.372;2023-02-08T17:45:41;-0.15125070826616138;;;0.0;100.0
15558;BME280;7880;50.110;9.372;2023-02-08T17:50:50;-0.28233444355428217;;;-0.125;100.0
15558;BME280;7880;50.110;9.372;2023-02-08T17:55:46;-0.2873761217517313;;;-0.125;100.0
15558;BME280;7880;50.110;9.372;2023-02-08T18:00:52;-0.22183428248390555;;;-0.062;100.0
15558;BME280;7880;50.110;9.372;2023-02-08T18:05:56;-0.22183428248390555;;;-0.062;100.0
15558;BME280;7880;50.110;9.372;2023-02-08T18:11:02;-0.2974594772735145;;;-0.125;100.0
15558;BME280;7880;50.110;9.372;2023-02-08T18:16:06;-0.2873761217517313;;;-0.125;100.0
15558;BME280;7880;50.110;9.372;2023-02-08T18:21:12;-0.26216772785410286;;;-0.062;100.0
15558;BME280;7880;50.110;9.372;2023-02-08T18:26:16;-0.3176261848246213;;;-0.125;100.0
15558;BME280;7880;50.110;9.372;2023-02-08T18:31:20;-0.3529179118340835;;;-0.187;100.0
15558;BME280;7880;50.110;9.372;2023-02-08T18:36:23;-0.42854299311875366;;;-0.25;100.0
15558;BME280;7880;50.110;9.372;2023-02-08T18:41:29;-0.49912634323700333;;;-0.312;100.0
15558;BME280;7880;50.110;9.372;2023-02-08T18:46:32;-0.5646679744124412;;;-0.375;100.0
15558;BME280;7880;50.110;9.372;2023-02-08T18:51:37;-0.7058343975804746;;;-0.5;100.0
15558;BME280;7880;50.110;9.372;2023-02-08T18:56:42;-0.6755844689672813;;;-0.5;100.0
15558;BME280;7880;50.110;9.372;2023-02-08T19:01:44;-0.7260010108351708;;;-0.562;100.0
15558;BME280;7880;50.110;9.372;2023-02-08T19:06:48;-0.8974170354893432;;;-0.687;100.0
15558;BME280;7880;50.110;9.372;2023-02-08T19:11:52;-0.8419589466822799;;;-0.687;100.0
15558;BME280;7880;50.110;9.372;2023-02-08T19:16:57;-0.9680000066757202;;;-0.75;100.0
15558;BME280;7880;50.110;9.372;2023-02-08T19:22:01;-0.9377501688664779;;;-0.75;100.0
15558;BME280;7880;50.110;9.372;2023-02-08T19:27:06;-0.8974170354893432;;;-0.75;100.0
15558;BME280;7880;50.110;9.372;2023-02-08T19:32:14;-0.8822921056707855;;;-0.75;100.0
15558;BME280;7880;50.110;9.372;2023-02-08T19:37:14;-0.9528750890807715;;;-0.75;100.0
15558;BME280;7880;50.110;9.372;2023-02-08T19:42:23;-0.8873337492346763;;;-0.75;100.0
15558;BME280;7880;50.110;9.372;2023-02-08T19:47:24;-0.9780832836171612;;;-0.75;100.0
15558;BME280;7880;50.110;9.372;2023-02-08T19:52:27;-0.9377501688664779;;;-0.75;100.0
15558;BME280;7880;50.110;9.372;2023-02-08T19:57:38;-0.8419589466822799;;;-0.625;100.0
15558;BME280;7880;50.110;9.372;2023-02-08T20:02:38;-1.043624555360293;;;-0.812;100.0
15558;BME280;7880;50.110;9.372;2023-02-08T20:07:43;-1.0537078235705848;;;-0.812;100.0
15558;BME280;7880;50.110;9.372;2023-02-08T20:12:46;-1.1394155563553796;;;-0.937;100.0
15558;BME280;7880;50.110;9.372;2023-02-08T20:17:49;-1.2049567070265765;;;-1.0;100.0
15558;BME280;7880;50.110;9.372;2023-02-08T20:22:53;-1.295705911371624;;;-1.062;100.0
15558;BME280;7880;50.110;9.372;2023-02-08T20:27:58;-1.2654561870673207;;;-1.062;100.0
15558;BME280;7880;50.110;9.372;2023-02-08T20:33:02;-1.3259556251985487;;;-1.125;100.0
15558;BME280;7880;50.110;9.372;2023-02-08T20:38:06;-1.3562053285480942;;;-1.125;100.0
15558;BME280;7880;50.110;9.372;2023-02-08T20:43:13;-1.3209140069549903;;;-1.125;100.0
15558;BME280;7880;50.110;9.372;2023-02-08T20:48:17;-1.2553729433042462;;;-1.125;100.0
15558;BME280;7880;50.110;9.372;2023-02-08T20:53:19;-1.4267879289516714;;;-1.25;100.0
15558;BME280;7880;50.110;9.372;2023-02-08T20:58:23;-1.477204037172487;;;-1.25;100.0
15558;BME280;7880;50.110;9.372;2023-02-08T21:03:29;-1.5578697497898246;;;-1.312;100.0
15558;BME280;7880;50.110;9.372;2023-02-08T21:08:33;-1.6939929708838464;;;-1.437;100.0
15558;BME280;7880;50.110;9.372;2023-02-08T21:13:37;-1.603244180395268;;;-1.437;100.0
15558;BME280;7880;50.110;9.372;2023-02-08T21:18:41;-1.6788681790174451;;;-1.437;100.0
15558;BME280;7880;50.110;9.372;2023-02-08T21:23:44;-1.6284521872119513;;;-1.437;100.0
15558;BME280;7880;50.110;9.372;2023-02-08T21:28:53;-1.608285782340681;;;-1.437;100.0
15558;BME280;7880;50.110;9.372;2023-02-08T21:34:04;-1.69903456759057;;;-1.5;100.0
15558;BME280;7880;50.110;9.372;2023-02-08T21:39:03;-1.6284521872119513;;;-1.437;100.0
15558;BME280;7880;50.110;9.372;2023-02-08T21:44:04;-1.8200328012404499;;;-1.625;100.0
15558;BME280;7880;50.110;9.372;2023-02-08T21:55:59;-1.734325736388564;;;-1.625;100.0
15558;BME280;7880;50.110;9.372;2023-02-08T22:01:02;-1.7091177601309027;;;-1.562;100.0
15558;BME280;7880;50.110;9.372;2023-02-08T22:06:14;-1.69903456759057;;;-1.562;100.0
15558;BME280;7880;50.110;9.372;2023-02-08T22:11:19;-1.900698197208112;;;-1.687;100.0
15558;BME280;7880;50.110;9.372;2023-02-08T22:16:23;-1.799866440607002;;;-1.687;100.0
15558;BME280;7880;50.110;9.372;2023-02-08T22:21:27;-1.9158229506574571;;;-1.75;100.0
15558;BME280;7880;50.110;9.372;2023-02-08T22:26:30;-1.9864050987875088;;;-1.812;100.0
15558;BME280;7880;50.110;9.372;2023-02-08T22:31:36;-1.9712803575617728;;;-1.812;100.0
15558;BME280;7880;50.110;9.372;2023-02-08T22:36:39;-2.016654573380947;;;-1.812;100.0
15558;BME280;7880;50.110;9.372;2023-02-08T22:41:42;-1.946072449698113;;;-1.812;100.0
15558;BME280;7880;50.110;9.372;2023-02-08T22:46:47;-1.9561556137166918;;;-1.812;100.0
15558;BME280;7880;50.110;9.372;2023-02-08T22:51:53;-2.1426939380762633;;;-1.937;100.0
15558;BME280;7880;50.110;9.372;2023-02-08T22:56:57;-2.0922782140260097;;;-1.937;100.0
15558;BME280;7880;50.110;9.372;2023-02-08T23:02:02;-2.082195065723499;;;-1.937;100.0